Centerdale, Iowa
Current Conditions -  °F | °C
As of 10:52 AM on Friday 24 Oct 2014 (Local Time) from KIOW Reporting Station
Moderate Fog Moderate Fog  
Wind Chill: 53°   Ceiling: 200
Heat Index: 53°   Visibility: 0.25mi
Dew Point: 53°   Wind: 7mph
Humidity: 100%   Direction: 170°S
Pressure: 30.06"   Gusts: NA
Location:  41.5542°N, 91.2913°W
Report Text: KIOW 241552Z AUTO 17006KT 1/4SM FG VV002 12/12 A3006 RMK AO2 SLP180 T01170117
Loading
Personal Weather Stations






























Interactive Weather Map
Tropical Storm Tracking
New forecast layout! Learn more

10-Day Weather Forecast

Advertisements
Track Severe Weather on mobile